Kerman, Iran
Current Conditions -  °F | °C
As of 12:00 PM on Tuesday 21 Oct 2014 (Local Time) from OIKK Reporting Station
Few Clouds Few Clouds  
Wind Chill: 81°   Ceiling: Unl
Heat Index: 81°   Visibility: 6mi
Dew Point: 27°   Wind: 14mph
Humidity: 14%   Direction: 260°W
Pressure: 30.18"   Gusts: NA
Location:  30.3°N, 57.08°E
Report Text: OIKK 210900Z 26012KT 9999 FEW040 27/M03 Q1022 A3018
Loading
Personal Weather Stations






























Interactive Weather Map
Tropical Storm Tracking
New forecast layout! Learn more

10-Day Weather Forecast

Advertisements
Track Severe Weather on mobile